createdAt,value
2018-09-17T00:01:27.396Z,101767.53
2018-09-17T00:03:56.949Z,101765.02
2018-09-17T00:06:25.464Z,101754.58
2018-09-17T00:08:53.933Z,101759.88
2018-09-17T00:11:22.404Z,101760.39
2018-09-17T00:13:50.924Z,101755.16
2018-09-17T00:16:19.402Z,101755.36
2018-09-17T00:18:47.906Z,101747.09
2018-09-17T00:21:16.555Z,101743.80
2018-09-17T00:23:45.133Z,101745.95
2018-09-17T00:26:13.627Z,101747.52
2018-09-17T00:28:42.248Z,101747.20
2018-09-17T00:31:10.784Z,101741.09
2018-09-17T00:33:39.261Z,101740.17
2018-09-17T00:36:07.720Z,101735.42
2018-09-17T00:38:36.274Z,101734.38
2018-09-17T00:41:04.772Z,101736.66
2018-09-17T00:43:33.433Z,101733.77
2018-09-17T00:46:01.877Z,101735.37
2018-09-17T00:48:30.411Z,101739.52
2018-09-17T00:50:58.875Z,101730.95
2018-09-17T00:53:27.333Z,101727.95
2018-09-17T00:55:55.816Z,101727.42
2018-09-17T00:58:24.307Z,101717.81
2018-09-17T01:00:52.872Z,101718.97
2018-09-17T01:03:21.364Z,101719.37
2018-09-17T01:05:49.943Z,101713.25
2018-09-17T01:08:18.398Z,101707.06
2018-09-17T01:10:46.909Z,101700.87
2018-09-17T01:13:15.401Z,101704.47
2018-09-17T01:15:43.877Z,101702.11
2018-09-17T01:18:12.344Z,101700.52
2018-09-17T01:20:40.840Z,101706.31
2018-09-17T01:23:09.291Z,101707.06
2018-09-17T01:25:37.736Z,101708.48
2018-09-17T01:28:06.547Z,101701.05
2018-09-17T01:30:35.017Z,101689.48
2018-09-17T01:33:03.520Z,101695.47
2018-09-17T01:35:32.020Z,101687.02
2018-09-17T01:38:00.503Z,101694.55
2018-09-17T01:40:28.982Z,101689.38
2018-09-17T01:42:57.459Z,101696.59
2018-09-17T01:45:26.322Z,101700.63
2018-09-17T01:47:54.762Z,101700.45
2018-09-17T01:50:23.327Z,101695.23
2018-09-17T01:52:51.803Z,101689.84
2018-09-17T01:55:20.257Z,101694.05
2018-09-17T01:57:48.720Z,101694.60
2018-09-17T02:00:17.623Z,101693.14
2018-09-17T02:02:46.060Z,101697.37
2018-09-17T02:05:14.629Z,101700.48
2018-09-17T02:07:43.152Z,101705.63
2018-09-17T02:10:11.600Z,101707.56
2018-09-17T02:12:40.042Z,101712.94
2018-09-17T02:15:08.681Z,101712.01
2018-09-17T02:17:37.256Z,101706.09
2018-09-17T02:20:05.759Z,101704.52
2018-09-17T02:22:34.281Z,101706.80
2018-09-17T02:25:02.788Z,101708.14
2018-09-17T02:27:31.396Z,101712.01
2018-09-17T02:29:59.861Z,101714.61
2018-09-17T02:32:28.343Z,101712.14
2018-09-17T02:34:56.835Z,101704.23
2018-09-17T02:37:25.297Z,101705.89
2018-09-17T02:39:53.752Z,101706.09
2018-09-17T02:42:22.213Z,101712.28
2018-09-17T02:44:50.706Z,101707.63
2018-09-17T02:47:19.172Z,101705.33
2018-09-17T02:49:47.679Z,101704.71
2018-09-17T02:52:16.194Z,101699.34
2018-09-17T02:54:44.652Z,101701.70
2018-09-17T02:57:13.143Z,101695.83
2018-09-17T02:59:41.683Z,101702.41
2018-09-17T03:02:10.117Z,101705.30
2018-09-17T03:04:38.584Z,101701.89
2018-09-17T03:07:07.077Z,101694.55
2018-09-17T03:09:35.565Z,101702.41
2018-09-17T03:12:05.513Z,101710.31
2018-09-17T03:14:33.996Z,101709.58
2018-09-17T03:17:12.456Z,101711.22
2018-09-17T03:19:41.982Z,101712.91
2018-09-17T03:22:10.943Z,101713.41
2018-09-17T03:24:39.630Z,101717.05
2018-09-17T03:27:08.447Z,101720.81
2018-09-17T03:29:37.133Z,101721.20
2018-09-17T03:32:05.702Z,101719.59
2018-09-17T03:34:34.166Z,101719.66
2018-09-17T03:37:02.724Z,101717.30
2018-09-17T03:39:31.343Z,101717.53
2018-09-17T03:41:59.825Z,101723.48
2018-09-17T03:44:28.376Z,101720.77
2018-09-17T03:46:56.852Z,101711.95
2018-09-17T03:49:25.430Z,101715.56
2018-09-17T03:51:53.883Z,101715.94
2018-09-17T03:54:22.325Z,101714.75
2018-09-17T03:56:50.808Z,101713.03
2018-09-17T03:59:19.275Z,101714.00
2018-09-17T04:01:47.718Z,101712.56
2018-09-17T04:04:16.187Z,101711.61
2018-09-17T04:06:44.616Z,101716.50
2018-09-17T04:09:13.090Z,101709.67
2018-09-17T04:11:41.589Z,101718.95
2018-09-17T04:14:10.055Z,101719.97
2018-09-17T04:16:38.665Z,101722.33
2018-09-17T04:19:07.207Z,101724.39
2018-09-17T04:21:35.722Z,101720.38
2018-09-17T04:24:04.223Z,101710.55
2018-09-17T04:26:32.685Z,101714.07
2018-09-17T04:29:01.144Z,101721.39
2018-09-17T04:31:29.743Z,101725.01
2018-09-17T04:33:58.219Z,101726.09
2018-09-17T04:36:26.680Z,101719.59
2018-09-17T04:38:55.320Z,101725.09
2018-09-17T04:41:23.996Z,101723.27
2018-09-17T04:43:53.518Z,101722.77
2018-09-17T04:46:22.016Z,101726.84
2018-09-17T04:48:50.528Z,101726.55
2018-09-17T04:51:19.385Z,101727.89
2018-09-17T04:53:47.868Z,101726.43
2018-09-17T04:56:16.331Z,101720.29
2018-09-17T04:58:44.916Z,101730.97
2018-09-17T05:01:13.429Z,101736.22
2018-09-17T05:03:41.909Z,101739.55
2018-09-17T05:06:10.425Z,101746.77
2018-09-17T05:08:38.905Z,101750.06
2018-09-17T05:11:07.367Z,101751.38
2018-09-17T05:13:36.225Z,101740.73
2018-09-17T05:16:04.716Z,101745.03
2018-09-17T05:18:33.513Z,101750.73
2018-09-17T05:21:02.057Z,101747.75
2018-09-17T05:23:30.660Z,101746.09
2018-09-17T05:25:59.181Z,101747.11
2018-09-17T05:28:27.623Z,101740.73
2018-09-17T05:30:56.080Z,101741.90
2018-09-17T05:33:24.575Z,101752.55
2018-09-17T05:35:53.099Z,101740.59
2018-09-17T05:38:21.579Z,101749.81
2018-09-17T05:40:50.077Z,101741.27
2018-09-17T05:43:18.509Z,101746.63
2018-09-17T05:45:47.008Z,101748.09
2018-09-17T05:48:15.468Z,101747.89
2018-09-17T05:50:43.932Z,101756.27
2018-09-17T05:53:12.405Z,101751.56
2018-09-17T05:55:40.875Z,101750.11
2018-09-17T05:58:09.343Z,101754.25
2018-09-17T06:00:37.866Z,101755.20
2018-09-17T06:03:06.323Z,101755.44
2018-09-17T06:05:34.829Z,101753.30
2018-09-17T06:08:03.255Z,101750.98
2018-09-17T06:10:31.720Z,101756.02
2018-09-17T06:13:00.169Z,101753.97
2018-09-17T06:15:28.635Z,101752.64
2018-09-17T06:17:57.100Z,101756.25
2018-09-17T06:20:25.600Z,101754.38
2018-09-17T06:22:54.410Z,101758.77
2018-09-17T06:25:22.885Z,101755.13
2018-09-17T06:27:51.350Z,101756.08
2018-09-17T06:30:19.847Z,101760.22
2018-09-17T06:32:48.329Z,101763.12
2018-09-17T06:35:17.126Z,101758.45
2018-09-17T06:37:45.645Z,101757.95
2018-09-17T06:40:14.124Z,101757.31
2018-09-17T06:42:42.624Z,101765.70
2018-09-17T06:45:11.147Z,101762.41
2018-09-17T06:47:39.638Z,101767.59
2018-09-17T06:50:08.179Z,101764.89
2018-09-17T06:52:36.689Z,101766.11
2018-09-17T06:55:05.270Z,101771.39
2018-09-17T06:57:33.801Z,101775.00
2018-09-17T07:00:02.404Z,101773.61
2018-09-17T07:02:30.933Z,101769.25
2018-09-17T07:04:59.465Z,101771.89
2018-09-17T07:07:27.981Z,101766.88
2018-09-17T07:09:56.501Z,101764.31
2018-09-17T07:12:25.110Z,101771.28
2018-09-17T07:14:53.745Z,101772.75
2018-09-17T07:17:22.292Z,101778.44
2018-09-17T07:19:50.841Z,101778.33
2018-09-17T07:22:19.336Z,101778.39
2018-09-17T07:24:47.947Z,101776.64
2018-09-17T07:27:16.429Z,101765.40
2018-09-17T07:29:44.977Z,101773.16
2018-09-17T07:32:13.455Z,101773.55
2018-09-17T07:34:42.424Z,101771.52
2018-09-17T07:37:11.173Z,101771.59
2018-09-17T07:39:39.665Z,101773.78
2018-09-17T07:42:08.224Z,101775.64
2018-09-17T07:44:36.690Z,101775.94
2018-09-17T07:47:05.478Z,101795.00
2018-09-17T07:49:33.986Z,101789.02
2018-09-17T07:52:02.467Z,101789.59
2018-09-17T07:54:30.972Z,101792.16
2018-09-17T07:56:59.685Z,101795.78
2018-09-17T07:59:28.212Z,101786.95
2018-09-17T08:01:56.685Z,101784.09
2018-09-17T08:04:25.400Z,101775.53
2018-09-17T08:06:53.909Z,101772.44
2018-09-17T08:09:22.408Z,101765.95
2018-09-17T08:11:51.279Z,101762.53
2018-09-17T08:14:19.846Z,101775.06
2018-09-17T08:16:48.348Z,101765.70
2018-09-17T08:19:16.909Z,101769.09
2018-09-17T08:21:45.407Z,101764.16
2018-09-17T08:24:13.902Z,101764.26
2018-09-17T08:26:42.460Z,101773.81
2018-09-17T08:29:10.957Z,101773.30
2018-09-17T08:31:39.900Z,101778.17
2018-09-17T08:34:08.468Z,101782.48
2018-09-17T08:36:36.961Z,101783.27
2018-09-17T08:39:09.298Z,101780.46
2018-09-17T08:41:38.197Z,101779.86
2018-09-17T08:44:06.718Z,101783.07
2018-09-17T08:46:35.281Z,101779.67
2018-09-17T08:49:03.873Z,101780.89
2018-09-17T08:51:32.385Z,101784.82
2018-09-17T08:54:00.941Z,101783.28
2018-09-17T08:56:35.798Z,101785.35
2018-09-17T08:59:09.597Z,101783.14
2018-09-17T09:02:43.760Z,101778.45
2018-09-17T09:05:17.751Z,101776.52
2018-09-17T09:07:51.543Z,101771.64
2018-09-17T09:10:26.308Z,101771.24
2018-09-17T09:12:56.631Z,101765.61
2018-09-17T09:15:30.934Z,101769.22
2018-09-17T09:17:59.424Z,101764.67
2018-09-17T09:20:27.911Z,101768.26
2018-09-17T09:22:56.448Z,101774.00
2018-09-17T09:25:25.311Z,101771.80
2018-09-17T09:27:53.802Z,101767.22
2018-09-17T09:30:22.397Z,101763.13
2018-09-17T09:32:50.947Z,101762.88
2018-09-17T09:35:19.484Z,101754.41
2018-09-17T09:37:48.008Z,101761.53
2018-09-17T09:40:16.533Z,101762.36
2018-09-17T09:42:45.468Z,101762.39
2018-09-17T09:45:14.889Z,101748.77
2018-09-17T09:47:43.388Z,101746.06
2018-09-17T09:50:11.923Z,101743.90
2018-09-17T09:52:40.550Z,101745.81
2018-09-17T09:55:09.040Z,101748.87
2018-09-17T09:57:37.569Z,101740.96
2018-09-17T10:00:11.901Z,101740.94
2018-09-17T10:02:46.714Z,101741.77
2018-09-17T10:05:15.246Z,101737.67
2018-09-17T10:07:43.721Z,101740.39
2018-09-17T10:10:17.572Z,101738.73
2018-09-17T10:12:51.397Z,101734.63
2018-09-17T10:15:55.206Z,101732.39
2018-09-17T10:18:28.955Z,101731.02
2018-09-17T10:20:57.660Z,101728.27
2018-09-17T10:23:26.229Z,101735.66
2018-09-17T10:25:54.772Z,101732.67
2018-09-17T10:28:23.422Z,101731.55
2018-09-17T10:30:53.285Z,101732.63
2018-09-17T10:33:21.819Z,101734.80
2018-09-17T10:35:50.297Z,101726.89
2018-09-17T10:38:18.890Z,101730.67
2018-09-17T10:40:47.384Z,101722.41
2018-09-17T10:43:16.787Z,101726.22
2018-09-17T10:45:46.197Z,101715.53
2018-09-17T10:48:15.479Z,101718.28
2018-09-17T10:50:44.832Z,101714.89
2018-09-17T10:53:14.696Z,101712.03
2018-09-17T10:55:47.168Z,101714.14
2018-09-17T10:58:19.611Z,101705.53
2018-09-17T11:00:51.712Z,101701.34
2018-09-17T11:03:25.072Z,101691.56
2018-09-17T11:05:59.803Z,101689.99
2018-09-17T11:08:34.129Z,101688.16
2018-09-17T11:11:06.660Z,101692.30
2018-09-17T11:13:35.172Z,101693.80
2018-09-17T11:16:04.805Z,101692.22
2018-09-17T11:18:33.332Z,101687.27
2018-09-17T11:21:01.825Z,101684.95
2018-09-17T11:23:30.488Z,101678.09
2018-09-17T11:25:59.301Z,101680.10
2018-09-17T11:28:27.785Z,101679.16
2018-09-17T11:31:02.426Z,101675.42
2018-09-17T11:33:31.028Z,101676.19
2018-09-17T11:35:59.529Z,101677.64
2018-09-17T11:38:28.007Z,101676.80
2018-09-17T11:40:56.562Z,101677.59
2018-09-17T11:43:25.165Z,101667.03
2018-09-17T11:45:53.658Z,101666.66
2018-09-17T11:48:22.142Z,101663.45
2018-09-17T11:50:50.680Z,101661.12
2018-09-17T11:53:19.177Z,101662.52
2018-09-17T11:55:47.707Z,101651.05
2018-09-17T11:58:16.214Z,101651.92
2018-09-17T12:00:50.142Z,101651.08
2018-09-17T12:03:23.817Z,101644.56
2018-09-17T12:05:57.612Z,101639.31
2018-09-17T12:08:26.133Z,101630.63
2018-09-17T12:10:54.619Z,101632.09
2018-09-17T12:13:23.111Z,101627.56
2018-09-17T12:15:51.587Z,101629.49
2018-09-17T12:18:20.077Z,101626.39
2018-09-17T12:20:48.558Z,101625.55
2018-09-17T12:23:17.096Z,101616.84
2018-09-17T12:25:45.584Z,101618.63
2018-09-17T12:28:14.052Z,101615.14
2018-09-17T12:30:42.613Z,101615.74
2018-09-17T12:33:11.059Z,101613.27
2018-09-17T12:35:39.544Z,101604.16
2018-09-17T12:38:08.013Z,101608.14
2018-09-17T12:40:36.547Z,101609.14
2018-09-17T12:43:05.078Z,101609.20
2018-09-17T12:45:33.551Z,101607.28
2018-09-17T12:48:02.029Z,101604.17
2018-09-17T12:50:30.535Z,101603.92
2018-09-17T12:52:59.012Z,101604.28
2018-09-17T12:55:27.459Z,101602.56
2018-09-17T12:57:55.941Z,101604.11
2018-09-17T13:00:24.508Z,101603.31
2018-09-17T13:02:52.963Z,101602.54
2018-09-17T13:05:21.442Z,101599.30
2018-09-17T13:07:49.897Z,101598.38
2018-09-17T13:10:18.380Z,101602.92
2018-09-17T13:12:46.843Z,101599.91
2018-09-17T13:15:15.376Z,101598.77
2018-09-17T13:17:43.913Z,101599.23
2018-09-17T13:20:12.404Z,101595.16
2018-09-17T13:22:40.912Z,101593.53
2018-09-17T13:25:09.366Z,101591.52
2018-09-17T13:27:37.987Z,101592.55
2018-09-17T13:30:07.180Z,101594.46
2018-09-17T13:32:35.660Z,101589.91
2018-09-17T13:35:04.244Z,101592.48
2018-09-17T13:37:32.785Z,101590.98
2018-09-17T13:40:01.306Z,101584.67
2018-09-17T13:42:29.796Z,101581.91
2018-09-17T13:44:58.353Z,101583.48
2018-09-17T13:47:26.970Z,101580.64
2018-09-17T13:49:55.451Z,101581.41
2018-09-17T13:52:23.955Z,101577.14
2018-09-17T13:54:52.399Z,101578.04
2018-09-17T13:57:20.898Z,101583.04
2018-09-17T13:59:49.372Z,101574.03
2018-09-17T14:02:17.976Z,101572.12
2018-09-17T14:04:46.420Z,101570.95
2018-09-17T14:07:14.896Z,101569.37
2018-09-17T14:09:43.343Z,101561.61
2018-09-17T14:12:11.856Z,101563.16
2018-09-17T14:14:40.306Z,101562.84
2018-09-17T14:17:08.815Z,101563.48
2018-09-17T14:19:37.286Z,101568.09
2018-09-17T14:22:05.823Z,101565.29
2018-09-17T14:24:34.348Z,101555.86
2018-09-17T14:27:02.897Z,101559.30
2018-09-17T14:29:31.368Z,101558.72
2018-09-17T14:32:05.024Z,101556.73
2018-09-17T14:34:33.582Z,101565.28
2018-09-17T14:37:02.048Z,101559.84
2018-09-17T14:39:30.928Z,101560.73
2018-09-17T14:41:59.431Z,101554.22
2018-09-17T14:44:27.969Z,101543.84
2018-09-17T14:46:56.628Z,101541.09
2018-09-17T14:49:25.236Z,101548.02
2018-09-17T14:51:53.754Z,101547.66
2018-09-17T14:54:22.336Z,101542.81
2018-09-17T14:56:50.913Z,101539.89
2018-09-17T14:59:19.587Z,101537.52
2018-09-17T15:01:48.271Z,101535.39
2018-09-17T15:04:16.799Z,101530.75
2018-09-17T15:06:45.413Z,101530.81
2018-09-17T15:09:14.411Z,101532.95
2018-09-17T15:11:43.292Z,101522.81
2018-09-17T15:14:12.677Z,101526.31
2018-09-17T15:16:41.348Z,101523.23
2018-09-17T15:19:09.919Z,101524.41
2018-09-17T15:21:38.447Z,101525.73
2018-09-17T15:24:07.080Z,101525.36
2018-09-17T15:26:35.623Z,101524.69
2018-09-17T15:29:04.186Z,101524.31
2018-09-17T15:31:32.713Z,101521.19
2018-09-17T15:34:01.397Z,101517.44
2018-09-17T15:36:29.893Z,101511.78
2018-09-17T15:39:00.236Z,101518.71
2018-09-17T15:41:28.907Z,101505.91
2018-09-17T15:43:58.324Z,101500.20
2018-09-17T15:46:26.816Z,101504.87
2018-09-17T15:48:55.369Z,101503.11
2018-09-17T15:51:26.217Z,101503.55
2018-09-17T15:53:54.794Z,101509.89
2018-09-17T15:56:23.430Z,101495.77
2018-09-17T15:58:51.896Z,101497.73
2018-09-17T16:01:20.362Z,101499.87
2018-09-17T16:03:48.909Z,101490.61
2018-09-17T16:06:17.451Z,101493.41
2018-09-17T16:08:46.984Z,101490.40
2018-09-17T16:11:15.440Z,101488.77
2018-09-17T16:13:44.197Z,101488.86
2018-09-17T16:16:12.811Z,101489.27
2018-09-17T16:18:45.294Z,101485.16
2018-09-17T16:21:13.928Z,101479.89
2018-09-17T16:23:42.483Z,101478.41
2018-09-17T16:26:11.066Z,101482.73
2018-09-17T16:28:39.609Z,101481.78
2018-09-17T16:31:08.095Z,101483.94
2018-09-17T16:33:42.512Z,101481.84
2018-09-17T16:36:11.576Z,101484.13
2018-09-17T16:38:40.213Z,101485.09
2018-09-17T16:41:08.679Z,101487.44
2018-09-17T16:43:37.226Z,101486.16
2018-09-17T16:46:05.862Z,101484.41
2018-09-17T16:48:34.547Z,101486.47
2018-09-17T16:51:03.241Z,101493.45
2018-09-17T16:53:31.838Z,101491.08
2018-09-17T16:56:00.250Z,101493.41
2018-09-17T16:58:28.812Z,101486.98
2018-09-17T17:00:57.267Z,101493.91
2018-09-17T17:03:27.047Z,101499.48
2018-09-17T17:05:55.560Z,101500.37
2018-09-17T17:08:24.115Z,101504.33
2018-09-17T17:10:52.637Z,101504.37
2018-09-17T17:13:21.483Z,101502.80
2018-09-17T17:15:51.180Z,101510.53
2018-09-17T17:18:20.996Z,101501.05
2018-09-17T17:20:49.531Z,101497.55
2018-09-17T17:23:18.151Z,101495.96
2018-09-17T17:25:46.724Z,101493.84
2018-09-17T17:28:15.334Z,101497.10
2018-09-17T17:30:44.802Z,101496.60
2018-09-17T17:33:13.718Z,101493.61
2018-09-17T17:35:43.786Z,101489.54
2018-09-17T17:38:13.416Z,101489.02
2018-09-17T17:40:42.315Z,101488.19
2018-09-17T17:43:10.642Z,101489.03
2018-09-17T17:45:39.166Z,101484.37
2018-09-17T17:48:07.820Z,101485.98
2018-09-17T17:50:36.345Z,101487.89
2018-09-17T17:53:04.910Z,101488.70
2018-09-17T17:55:33.737Z,101491.16
2018-09-17T17:58:02.366Z,101493.30
2018-09-17T18:00:30.787Z,101491.63
2018-09-17T18:02:59.287Z,101491.30
2018-09-17T18:05:27.741Z,101499.14
2018-09-17T18:07:57.126Z,101499.09
2018-09-17T18:10:25.715Z,101503.66
2018-09-17T18:12:54.348Z,101497.60
2018-09-17T18:15:22.952Z,101500.28
2018-09-17T18:17:51.488Z,101500.27
2018-09-17T18:20:20.015Z,101501.86
2018-09-17T18:22:49.322Z,101502.38
2018-09-17T18:25:17.928Z,101499.03
2018-09-17T18:27:46.415Z,101489.36
2018-09-17T18:30:14.919Z,101497.79
2018-09-17T18:32:43.438Z,101496.52
2018-09-17T18:35:11.944Z,101500.59
2018-09-17T18:37:40.523Z,101496.72
2018-09-17T18:40:09.125Z,101492.02
2018-09-17T18:42:37.713Z,101495.78
2018-09-17T18:45:06.224Z,101487.11
2018-09-17T18:47:35.016Z,101497.28
2018-09-17T18:50:03.533Z,101493.88
2018-09-17T18:52:32.084Z,101494.31
2018-09-17T18:55:01.657Z,101497.84
2018-09-17T18:57:30.215Z,101492.23
2018-09-17T18:59:58.878Z,101490.92
2018-09-17T19:02:27.256Z,101494.71
2018-09-17T19:04:55.868Z,101491.05
2018-09-17T19:07:24.433Z,101489.00
2018-09-17T19:09:53.063Z,101497.83
2018-09-17T19:12:21.828Z,101489.62
2018-09-17T19:14:55.515Z,101490.45
2018-09-17T19:17:29.231Z,101496.00
2018-09-17T19:19:57.812Z,101484.46
2018-09-17T19:22:31.672Z,101488.45
2018-09-17T19:25:00.288Z,101487.25
2018-09-17T19:27:34.104Z,101484.89
2018-09-17T19:30:02.639Z,101490.61
2018-09-17T19:32:31.220Z,101488.96
2018-09-17T19:34:59.718Z,101486.27
2018-09-17T19:37:33.433Z,101484.45
2018-09-17T19:40:07.311Z,101484.14
2018-09-17T19:42:35.887Z,101477.16
2018-09-17T19:45:09.723Z,101479.32
2018-09-17T19:47:38.370Z,101478.47
2018-09-17T19:50:11.181Z,101478.64
2018-09-17T19:52:39.601Z,101475.50
2018-09-17T19:55:08.174Z,101469.88
2018-09-17T19:57:41.872Z,101478.88
2018-09-17T20:00:10.423Z,101468.59
2018-09-17T20:02:38.909Z,101471.91
2018-09-17T20:05:12.620Z,101470.66
2018-09-17T20:07:41.097Z,101466.28
2018-09-17T20:10:09.980Z,101463.47
2018-09-17T20:12:38.524Z,101467.23
2018-09-17T20:15:07.601Z,101467.14
2018-09-17T20:17:36.425Z,101471.70
2018-09-17T20:20:05.867Z,101465.87
2018-09-17T20:22:34.489Z,101468.04
2018-09-17T20:25:03.021Z,101468.14
2018-09-17T20:27:31.548Z,101473.45
2018-09-17T20:30:00.040Z,101470.16
2018-09-17T20:32:28.540Z,101473.25
2018-09-17T20:34:57.040Z,101468.72
2018-09-17T20:37:25.541Z,101471.00
2018-09-17T20:39:54.529Z,101466.09
2018-09-17T20:42:23.044Z,101462.17
2018-09-17T20:44:51.534Z,101456.25
2018-09-17T20:47:20.132Z,101458.57
2018-09-17T20:49:48.679Z,101457.16
2018-09-17T20:52:17.180Z,101449.11
2018-09-17T20:54:45.931Z,101446.11
2018-09-17T20:57:14.424Z,101450.41
2018-09-17T20:59:43.912Z,101442.69
2018-09-17T21:02:12.492Z,101446.93
2018-09-17T21:04:40.998Z,101443.87
2018-09-17T21:07:09.616Z,101451.77
2018-09-17T21:09:38.092Z,101450.63
2018-09-17T21:12:06.775Z,101448.23
2018-09-17T21:14:35.290Z,101445.77
2018-09-17T21:17:03.757Z,101438.77
2018-09-17T21:19:32.497Z,101443.87
2018-09-17T21:22:00.819Z,101436.94
2018-09-17T21:24:30.441Z,101434.03
2018-09-17T21:26:58.904Z,101429.17
2018-09-17T21:29:27.363Z,101429.86
2018-09-17T21:31:55.940Z,101426.95
2018-09-17T21:34:24.400Z,101430.22
2018-09-17T21:36:53.071Z,101424.45
2018-09-17T21:39:21.583Z,101419.77
2018-09-17T21:41:52.061Z,101413.70
2018-09-17T21:44:20.560Z,101414.19
2018-09-17T21:46:49.137Z,101408.10
2018-09-17T21:49:17.606Z,101411.38
2018-09-17T21:51:46.085Z,101401.05
2018-09-17T21:54:14.575Z,101403.20
2018-09-17T21:56:43.082Z,101401.92
2018-09-17T21:59:11.633Z,101396.28
2018-09-17T22:01:40.124Z,101399.76
2018-09-17T22:04:09.665Z,101400.69
2018-09-17T22:06:38.145Z,101401.97
2018-09-17T22:09:07.764Z,101397.80
2018-09-17T22:11:38.228Z,101397.98
2018-09-17T22:14:06.722Z,101399.09
2018-09-17T22:16:35.532Z,101403.32
2018-09-17T22:19:04.030Z,101400.14
2018-09-17T22:21:32.664Z,101397.62
2018-09-17T22:24:01.197Z,101395.16
2018-09-17T22:26:29.855Z,101392.63
2018-09-17T22:28:58.370Z,101396.62
2018-09-17T22:31:26.795Z,101394.36
2018-09-17T22:33:55.279Z,101390.97
2018-09-17T22:36:23.802Z,101388.89
2018-09-17T22:38:52.288Z,101393.75
2018-09-17T22:41:21.943Z,101389.03
2018-09-17T22:43:50.414Z,101384.31
2018-09-17T22:46:19.009Z,101386.94
2018-09-17T22:48:47.525Z,101379.59
2018-09-17T22:51:16.120Z,101376.35
2018-09-17T22:53:44.741Z,101370.81
2018-09-17T22:56:13.254Z,101376.95
2018-09-17T22:58:41.739Z,101370.31
2018-09-17T23:01:10.224Z,101366.95
2018-09-17T23:03:38.737Z,101367.79
2018-09-17T23:06:07.253Z,101363.44
2018-09-17T23:08:35.774Z,101362.63
2018-09-17T23:11:04.280Z,101363.84
2018-09-17T23:13:33.120Z,101359.30
2018-09-17T23:16:01.652Z,101355.19
2018-09-17T23:18:30.143Z,101356.53
2018-09-17T23:20:58.683Z,101346.18
2018-09-17T23:23:27.145Z,101343.08
2018-09-17T23:25:55.641Z,101341.89
2018-09-17T23:28:24.144Z,101341.22
2018-09-17T23:30:52.639Z,101339.06
2018-09-17T23:33:21.282Z,101340.25
2018-09-17T23:35:50.009Z,101333.94
2018-09-17T23:38:18.551Z,101331.92
2018-09-17T23:40:47.120Z,101336.03
2018-09-17T23:43:15.617Z,101336.03
2018-09-17T23:45:44.160Z,101331.95
2018-09-17T23:48:12.664Z,101332.18
2018-09-17T23:50:41.154Z,101324.97
2018-09-17T23:53:09.646Z,101327.45
2018-09-17T23:55:38.121Z,101329.34
2018-09-17T23:58:06.635Z,101326.50
